OIKQ  Dayrestan Airport

Add Bookmark

Iran

Status
Operational
Latitude Longitude
26° 45' 16" N 55° 54' 8" E
26.754601 55.902401
Local (DST + 5) UTC (GMT + 4)
Sep 2, 2014 11:16 Sep 2, 2014 18:46
Sunrise-Sunset Local UTC
Begin Civil Twilight 06:01 01:31
Sunrise 06:25 01:55
Sunset 07:06 14:36
End Civil Twilight 07:30 15:00

Current Weather

METAR Observed MVFR
OIKQ 021800Z 33010KT 7000 NSC 32/23 Q0999 Tue, Sep 2, 2014 @ 18:00 UTC
(46 Minutes ago)
Marginal Visual Flight Rules
Wind Visibility Clouds Conditions
330° at 10 knots (19 kph) 7000 meters
  • Clear skies
  • No significant weather
Temperatures Readings Precipitation
Current Temp 32°C (90°F)
Dewpoint 23°C (73°F)
Heat Index 37°C (99°F)
Humidity 59%
Altimeter 29.5"Hg
Sea Level Pressure 999mb
Field Elevation 39.37'
None Recorded

Additional weather within a 92.6km radius of OIKQ

Map ICAO Location
OIKB 69.8km N (042°)

24 Hour Weather History

Loading
-

24 Hour Weather Graphs

Loading
-

CheckWX.com is intended as a tool to help pilots better visualize weather data. It is not intended as a substitute for an official weather briefing obtained from a Flight Service Station. CheckWX.com does not meet the FAA requirements for an official pre-flight weather briefing. Therefore, it's important that pilots still call and obtain an official FSS pre-flight weather briefing.